createdAt,value
2023-02-25T00:02:01.579Z,6.76
2023-02-25T00:04:30.669Z,6.93
2023-02-25T00:06:57.595Z,6.67
2023-02-25T00:09:24.662Z,6.63
2023-02-25T00:11:51.613Z,6.74
2023-02-25T00:14:23.498Z,6.93
2023-02-25T00:16:50.932Z,7.01
2023-02-25T00:19:23.131Z,7.00
2023-02-25T00:21:50.163Z,7.08
2023-02-25T00:24:21.801Z,6.98
2023-02-25T00:26:50.815Z,6.89
2023-02-25T00:29:20.162Z,6.94
2023-02-25T00:31:49.614Z,6.79
2023-02-25T00:34:18.012Z,6.69
2023-02-25T00:36:52.425Z,6.42
2023-02-25T00:39:19.604Z,6.56
2023-02-25T00:41:46.598Z,6.54
2023-02-25T00:44:15.737Z,6.31
2023-02-25T00:46:44.999Z,6.46
2023-02-25T00:49:16.687Z,6.41
2023-02-25T00:51:48.168Z,6.29
2023-02-25T00:54:15.079Z,6.34
2023-02-25T00:56:44.193Z,6.25
2023-02-25T00:59:13.516Z,6.46
2023-02-25T01:01:44.890Z,6.56
2023-02-25T01:04:12.010Z,6.52
2023-02-25T01:06:41.441Z,6.44
2023-02-25T01:09:14.054Z,6.59
2023-02-25T01:11:47.456Z,6.47
2023-02-25T01:14:19.482Z,6.37
2023-02-25T01:16:50.843Z,6.51
2023-02-25T01:19:24.536Z,6.68
2023-02-25T01:21:55.840Z,6.71
2023-02-25T01:24:30.010Z,6.63
2023-02-25T01:27:00.490Z,6.64
2023-02-25T01:29:39.308Z,6.89
2023-02-25T01:32:15.678Z,6.69
2023-02-25T01:34:42.851Z,6.64
2023-02-25T01:37:10.056Z,6.79
2023-02-25T01:39:37.035Z,6.44
2023-02-25T01:42:12.860Z,6.30
2023-02-25T01:45:15.175Z,6.43
2023-02-25T01:47:45.260Z,6.38
2023-02-25T01:50:17.272Z,6.31
2023-02-25T01:52:45.276Z,6.29
2023-02-25T01:55:12.775Z,6.47
2023-02-25T01:57:42.391Z,6.47
2023-02-25T02:00:17.302Z,6.36
2023-02-25T02:02:47.489Z,6.21
2023-02-25T02:05:15.162Z,6.43
2023-02-25T02:07:42.098Z,6.31
2023-02-25T02:10:16.160Z,6.27
2023-02-25T02:12:46.498Z,6.47
2023-02-25T02:15:15.548Z,6.42
2023-02-25T02:17:51.888Z,6.40
2023-02-25T02:20:56.039Z,6.49
2023-02-25T02:23:57.230Z,6.56
2023-02-25T02:26:59.275Z,6.34
2023-02-25T02:30:23.396Z,6.51
2023-02-25T02:33:20.015Z,6.57
2023-02-25T02:36:02.245Z,6.55
2023-02-25T02:39:13.991Z,6.65
2023-02-25T02:42:15.633Z,6.56
2023-02-25T02:44:54.571Z,6.53
2023-02-25T02:47:30.173Z,6.45
2023-02-25T02:50:18.424Z,6.48
2023-02-25T02:52:53.751Z,6.51
2023-02-25T02:55:31.572Z,6.49
2023-02-25T02:58:13.746Z,6.61
2023-02-25T03:00:45.117Z,6.45
2023-02-25T03:03:19.970Z,6.39
2023-02-25T03:05:51.842Z,6.44
2023-02-25T03:08:29.028Z,6.46
2023-02-25T03:10:55.964Z,6.33
2023-02-25T03:13:23.097Z,6.34
2023-02-25T03:15:52.295Z,6.61
2023-02-25T03:18:45.024Z,6.94
2023-02-25T03:21:18.712Z,6.94
2023-02-25T03:23:50.061Z,6.77
2023-02-25T03:26:30.293Z,6.58
2023-02-25T03:28:57.989Z,6.57
2023-02-25T03:31:36.234Z,6.46
2023-02-25T03:34:16.397Z,6.51
2023-02-25T03:36:57.112Z,6.48
2023-02-25T03:39:32.236Z,6.62
2023-02-25T03:42:02.149Z,6.49
2023-02-25T03:44:37.831Z,6.56
2023-02-25T03:47:08.804Z,6.54
2023-02-25T03:49:50.931Z,6.31
2023-02-25T03:52:23.880Z,6.24
2023-02-25T03:54:53.469Z,6.19
2023-02-25T03:57:25.035Z,6.37
2023-02-25T03:59:56.560Z,6.09
2023-02-25T04:02:33.584Z,6.17
2023-02-25T04:05:03.590Z,6.13
2023-02-25T04:07:35.283Z,6.27
2023-02-25T04:10:03.650Z,6.29
2023-02-25T04:12:30.679Z,6.28
2023-02-25T04:15:00.154Z,6.21
2023-02-25T04:17:30.051Z,6.31
2023-02-25T04:19:56.976Z,6.41
2023-02-25T04:22:26.459Z,6.54
2023-02-25T04:24:53.602Z,6.40
2023-02-25T04:27:20.799Z,6.37
2023-02-25T04:29:49.878Z,6.29
2023-02-25T04:32:16.883Z,6.09
2023-02-25T04:34:43.897Z,5.81
2023-02-25T04:37:13.355Z,5.93
2023-02-25T04:39:40.225Z,6.26
2023-02-25T04:42:07.519Z,6.26
2023-02-25T04:44:34.620Z,6.29
2023-02-25T04:47:03.826Z,6.23
2023-02-25T04:49:30.822Z,6.38
2023-02-25T04:51:59.591Z,6.26
2023-02-25T04:54:28.849Z,6.26
2023-02-25T04:56:56.435Z,6.23
2023-02-25T04:59:26.718Z,6.25
2023-02-25T05:01:53.669Z,6.06
2023-02-25T05:04:22.971Z,6.01
2023-02-25T05:06:49.934Z,5.90
2023-02-25T05:09:16.936Z,5.75
2023-02-25T05:11:43.840Z,5.81
2023-02-25T05:14:13.123Z,6.02
2023-02-25T05:16:42.627Z,5.77
2023-02-25T05:19:09.613Z,5.80
2023-02-25T05:21:36.529Z,5.78
2023-02-25T05:24:03.991Z,5.99
2023-02-25T05:26:33.314Z,6.03
2023-02-25T05:29:00.262Z,5.78
2023-02-25T05:31:27.368Z,5.63
2023-02-25T05:33:56.626Z,5.69
2023-02-25T05:36:28.299Z,5.81
2023-02-25T05:39:03.091Z,5.88
2023-02-25T05:41:30.742Z,5.80
2023-02-25T05:43:58.467Z,5.92
2023-02-25T05:46:26.658Z,5.80
2023-02-25T05:48:54.262Z,5.73
2023-02-25T05:51:23.481Z,6.11
2023-02-25T05:53:52.178Z,6.23
2023-02-25T05:56:31.604Z,5.70
2023-02-25T05:59:01.818Z,5.84
2023-02-25T06:01:31.790Z,6.11
2023-02-25T06:04:01.370Z,6.07
2023-02-25T06:06:31.561Z,6.11
2023-02-25T06:08:58.695Z,6.08
2023-02-25T06:11:32.033Z,5.78
2023-02-25T06:14:00.329Z,5.62
2023-02-25T06:16:33.135Z,5.80
2023-02-25T06:19:02.579Z,5.92
2023-02-25T06:21:30.550Z,5.97
2023-02-25T06:23:57.512Z,5.87
2023-02-25T06:26:24.953Z,5.87
2023-02-25T06:28:52.611Z,5.76
2023-02-25T06:31:22.714Z,5.73
2023-02-25T06:33:54.925Z,5.82
2023-02-25T06:36:22.359Z,6.03
2023-02-25T06:38:49.520Z,6.12
2023-02-25T06:41:22.472Z,5.83
2023-02-25T06:43:52.800Z,5.91
2023-02-25T06:46:26.347Z,5.98
2023-02-25T06:48:57.347Z,5.87
2023-02-25T06:51:25.858Z,5.98
2023-02-25T06:53:55.118Z,6.10
2023-02-25T06:56:26.606Z,6.22
2023-02-25T06:58:53.753Z,6.00
2023-02-25T07:01:20.923Z,6.05
2023-02-25T07:03:47.891Z,6.00
2023-02-25T07:06:18.205Z,6.15
2023-02-25T07:08:52.074Z,6.09
2023-02-25T07:11:18.841Z,6.02
2023-02-25T07:13:50.058Z,6.05
2023-02-25T07:16:17.783Z,6.01
2023-02-25T07:18:45.400Z,6.22
2023-02-25T07:21:15.932Z,6.23
2023-02-25T07:23:43.110Z,6.36
2023-02-25T07:26:12.803Z,6.39
2023-02-25T07:28:40.673Z,6.45
2023-02-25T07:31:18.698Z,6.37
2023-02-25T07:33:46.593Z,6.50
2023-02-25T07:36:15.301Z,6.60
2023-02-25T07:38:42.535Z,6.57
2023-02-25T07:41:18.021Z,6.65
2023-02-25T07:43:45.498Z,6.66
2023-02-25T07:46:13.411Z,6.60
2023-02-25T07:48:40.625Z,6.33
2023-02-25T07:51:15.458Z,6.19
2023-02-25T07:53:45.706Z,6.08
2023-02-25T07:56:13.567Z,6.19
2023-02-25T07:58:42.941Z,6.38
2023-02-25T08:01:33.156Z,6.35
2023-02-25T08:04:05.824Z,6.53
2023-02-25T08:06:42.606Z,7.04
2023-02-25T08:09:13.822Z,7.18
2023-02-25T08:11:44.167Z,7.15
2023-02-25T08:14:12.051Z,7.38
2023-02-25T08:16:39.143Z,7.70
2023-02-25T08:19:06.942Z,7.90
2023-02-25T08:21:37.414Z,8.47
2023-02-25T08:24:04.772Z,8.07
2023-02-25T08:26:31.883Z,8.30
2023-02-25T08:29:00.917Z,8.70
2023-02-25T08:31:28.474Z,8.85
2023-02-25T08:33:59.567Z,9.29
2023-02-25T08:36:32.709Z,9.61
2023-02-25T08:39:03.726Z,9.37
2023-02-25T08:41:33.030Z,9.26
2023-02-25T08:44:01.289Z,8.24
2023-02-25T08:46:31.451Z,8.00
2023-02-25T08:48:58.885Z,7.54
2023-02-25T08:51:34.204Z,7.46
2023-02-25T08:54:15.394Z,7.73
2023-02-25T08:56:44.424Z,7.41
2023-02-25T08:59:15.106Z,7.59
2023-02-25T09:01:49.177Z,7.80
2023-02-25T09:04:19.369Z,8.49
2023-02-25T09:06:50.830Z,9.26
2023-02-25T09:09:20.328Z,11.39
2023-02-25T09:11:49.239Z,13.33
2023-02-25T09:14:19.683Z,13.57
2023-02-25T09:16:47.079Z,13.65
2023-02-25T09:19:17.229Z,15.19
2023-02-25T09:21:48.045Z,16.73
2023-02-25T09:24:18.355Z,14.96
2023-02-25T09:26:47.702Z,14.94
2023-02-25T09:29:14.723Z,15.75
2023-02-25T09:31:41.925Z,14.18
2023-02-25T09:34:15.244Z,14.33
2023-02-25T09:36:42.448Z,14.32
2023-02-25T09:39:10.275Z,13.04
2023-02-25T09:41:55.769Z,11.69
2023-02-25T09:44:31.738Z,10.62
2023-02-25T09:47:09.807Z,9.49
2023-02-25T09:49:42.962Z,8.85
2023-02-25T09:52:18.697Z,8.22
2023-02-25T09:54:55.973Z,8.26
2023-02-25T09:57:25.364Z,8.61
2023-02-25T09:59:57.220Z,9.12
2023-02-25T10:02:40.960Z,9.21
2023-02-25T10:05:33.995Z,8.73
2023-02-25T10:08:25.207Z,8.01
2023-02-25T10:11:12.698Z,7.65
2023-02-25T10:14:04.982Z,7.75
2023-02-25T10:16:45.517Z,7.59
2023-02-25T10:19:37.158Z,7.71
2023-02-25T10:22:27.464Z,7.88
2023-02-25T10:25:05.320Z,7.32
2023-02-25T10:27:43.882Z,7.15
2023-02-25T10:30:31.442Z,6.60
2023-02-25T10:33:05.734Z,6.36
2023-02-25T10:35:40.772Z,6.77
2023-02-25T10:38:11.054Z,6.95
2023-02-25T10:40:40.213Z,7.01
2023-02-25T10:43:27.538Z,6.84
2023-02-25T10:46:19.088Z,6.28
2023-02-25T10:48:56.641Z,6.24
2023-02-25T10:51:28.298Z,6.22
2023-02-25T10:53:58.222Z,6.50
2023-02-25T10:56:39.900Z,6.74
2023-02-25T10:59:40.025Z,6.51
2023-02-25T11:02:31.481Z,6.86
2023-02-25T11:05:01.513Z,7.96
2023-02-25T11:07:45.079Z,9.83
2023-02-25T11:10:23.869Z,11.12
2023-02-25T11:12:57.924Z,9.57
2023-02-25T11:15:45.700Z,9.27
2023-02-25T11:18:32.839Z,8.69
2023-02-25T11:21:13.060Z,7.96
2023-02-25T11:23:47.453Z,7.29
2023-02-25T11:26:39.339Z,6.89
2023-02-25T11:29:23.182Z,7.02
2023-02-25T11:32:05.371Z,7.12
2023-02-25T11:34:47.100Z,7.15
2023-02-25T11:40:07.950Z,6.48
2023-02-25T11:42:35.091Z,6.21
2023-02-25T11:45:05.636Z,6.32
2023-02-25T11:47:42.165Z,6.32
2023-02-25T11:50:25.721Z,6.53
2023-02-25T11:53:24.856Z,6.33
2023-02-25T11:55:57.557Z,6.80
2023-02-25T11:58:39.695Z,7.12
2023-02-25T12:01:31.123Z,7.18
2023-02-25T12:04:21.636Z,7.51
2023-02-25T12:07:08.209Z,7.24
2023-02-25T12:10:33.256Z,7.95
2023-02-25T12:13:41.016Z,12.22
2023-02-25T12:16:28.968Z,10.86
2023-02-25T12:19:32.798Z,8.84
2023-02-25T12:22:37.685Z,7.44
2023-02-25T12:25:13.233Z,7.34
2023-02-25T12:28:10.770Z,7.13
2023-02-25T12:31:24.968Z,7.34
2023-02-25T12:34:29.243Z,7.70
2023-02-25T12:37:33.432Z,7.93
2023-02-25T12:40:19.959Z,8.25
2023-02-25T12:43:07.114Z,8.88
2023-02-25T12:46:17.016Z,10.28
2023-02-25T12:49:42.315Z,14.68
2023-02-25T12:52:37.203Z,15.91
2023-02-25T12:55:24.872Z,13.53
2023-02-25T12:58:29.565Z,12.64
2023-02-25T13:01:34.453Z,14.59
2023-02-25T13:04:38.623Z,17.42
2023-02-25T13:07:36.686Z,18.66
2023-02-25T13:10:06.529Z,17.63
2023-02-25T13:13:00.671Z,16.70
2023-02-25T13:15:53.991Z,18.19
2023-02-25T13:19:04.640Z,17.03
2023-02-25T13:21:40.004Z,14.89
2023-02-25T13:24:12.548Z,13.41
2023-02-25T13:26:54.960Z,14.17
2023-02-25T13:29:42.857Z,14.73
2023-02-25T13:32:31.181Z,13.46
2023-02-25T13:35:48.863Z,11.39
2023-02-25T13:38:27.991Z,9.92
2023-02-25T13:41:44.828Z,12.24
2023-02-25T13:44:50.453Z,14.88
2023-02-25T13:48:05.329Z,17.44
2023-02-25T13:51:11.557Z,19.33
2023-02-25T13:54:11.929Z,18.37
2023-02-25T13:57:02.629Z,17.99
2023-02-25T14:00:07.045Z,17.51
2023-02-25T14:02:55.817Z,18.07
2023-02-25T14:05:31.413Z,17.23
2023-02-25T14:08:34.693Z,15.10
2023-02-25T14:11:28.157Z,13.50
2023-02-25T14:14:52.602Z,12.19
2023-02-25T14:17:54.979Z,11.73
2023-02-25T14:20:50.236Z,11.57
2023-02-25T14:24:13.148Z,10.97
2023-02-25T14:27:10.269Z,10.10
2023-02-25T14:30:14.253Z,9.97
2023-02-25T14:32:52.852Z,9.61
2023-02-25T14:36:00.993Z,9.33
2023-02-25T14:38:42.799Z,9.19
2023-02-25T14:41:30.561Z,8.97
2023-02-25T14:44:08.545Z,8.96
2023-02-25T14:46:54.794Z,8.70
2023-02-25T14:49:38.211Z,8.58
2023-02-25T14:52:47.991Z,8.86
2023-02-25T14:56:11.648Z,9.34
2023-02-25T14:59:14.421Z,9.27
2023-02-25T15:02:28.123Z,8.53
2023-02-25T15:05:08.419Z,8.34
2023-02-25T15:08:17.808Z,8.22
2023-02-25T15:11:25.308Z,8.21
2023-02-25T15:14:28.257Z,9.60
2023-02-25T15:17:36.948Z,11.05
2023-02-25T15:20:34.620Z,11.85
2023-02-25T15:23:12.698Z,10.88
2023-02-25T15:26:19.237Z,9.85
2023-02-25T15:28:51.580Z,9.38
2023-02-25T15:31:34.028Z,9.09
2023-02-25T15:34:21.211Z,9.29
2023-02-25T15:36:52.503Z,9.57
2023-02-25T15:39:42.270Z,8.71
2023-02-25T15:42:12.165Z,8.13
2023-02-25T15:44:44.167Z,7.92
2023-02-25T15:47:27.485Z,8.03
2023-02-25T15:49:57.050Z,7.86
2023-02-25T15:53:00.416Z,7.81
2023-02-25T15:55:34.938Z,7.36
2023-02-25T15:58:04.343Z,7.05
2023-02-25T16:00:47.240Z,7.45
2023-02-25T16:03:32.255Z,7.32
2023-02-25T16:06:17.433Z,7.59
2023-02-25T16:09:15.291Z,7.48
2023-02-25T16:11:45.008Z,7.33
2023-02-25T16:14:31.788Z,7.55
2023-02-25T16:17:35.588Z,7.39
2023-02-25T16:20:30.650Z,7.00
2023-02-25T16:23:03.121Z,6.86
2023-02-25T16:25:53.044Z,6.65
2023-02-25T16:28:32.216Z,6.49
2023-02-25T16:31:27.462Z,6.36
2023-02-25T16:33:57.467Z,6.06
2023-02-25T16:36:48.414Z,5.96
2023-02-25T16:39:30.246Z,5.99
2023-02-25T16:42:12.845Z,6.05
2023-02-25T16:44:49.674Z,6.00
2023-02-25T16:47:30.966Z,6.13
2023-02-25T16:50:01.133Z,6.06
2023-02-25T16:52:36.858Z,5.83
2023-02-25T16:55:12.644Z,5.89
2023-02-25T16:57:39.935Z,5.99
2023-02-25T17:00:17.256Z,6.01
2023-02-25T17:02:51.473Z,5.86
2023-02-25T17:05:30.033Z,5.93
2023-02-25T17:08:02.371Z,5.75
2023-02-25T17:10:45.977Z,5.71
2023-02-25T17:13:24.495Z,5.66
2023-02-25T17:15:52.987Z,5.70
2023-02-25T17:18:27.122Z,5.72
2023-02-25T17:21:07.599Z,5.69
2023-02-25T17:23:43.653Z,5.60
2023-02-25T17:26:23.297Z,5.50
2023-02-25T17:28:57.752Z,5.64
2023-02-25T17:31:30.034Z,5.71
2023-02-25T17:34:04.067Z,5.57
2023-02-25T17:36:39.317Z,5.56
2023-02-25T17:39:16.105Z,5.52
2023-02-25T17:41:43.756Z,5.48
2023-02-25T17:44:42.579Z,5.32
2023-02-25T17:47:13.033Z,5.41
2023-02-25T17:49:42.168Z,5.44
2023-02-25T17:52:31.847Z,5.23
2023-02-25T17:55:08.029Z,5.08
2023-02-25T17:57:42.607Z,5.32
2023-02-25T18:00:35.713Z,5.34
2023-02-25T18:03:18.213Z,5.36
2023-02-25T18:05:59.073Z,5.27
2023-02-25T18:08:34.314Z,5.37
2023-02-25T18:11:27.415Z,5.39
2023-02-25T18:13:57.229Z,5.29
2023-02-25T18:16:41.459Z,5.30
2023-02-25T18:19:28.147Z,5.22
2023-02-25T18:21:55.623Z,5.14
2023-02-25T18:24:34.545Z,5.02
2023-02-25T18:27:17.586Z,4.80
2023-02-25T18:29:46.680Z,4.67
2023-02-25T18:32:16.205Z,4.63
2023-02-25T18:34:43.276Z,4.72
2023-02-25T18:37:18.142Z,4.80
2023-02-25T18:39:47.663Z,4.77
2023-02-25T18:42:18.484Z,4.81
2023-02-25T18:44:49.123Z,4.81
2023-02-25T18:47:16.856Z,4.79
2023-02-25T18:49:45.361Z,4.86
2023-02-25T18:52:26.117Z,4.92
2023-02-25T18:54:53.004Z,4.81
2023-02-25T18:57:29.180Z,4.92
2023-02-25T19:00:00.586Z,5.03
2023-02-25T19:02:34.958Z,5.28
2023-02-25T19:05:04.146Z,5.38
2023-02-25T19:07:37.472Z,5.45
2023-02-25T19:10:05.939Z,5.49
2023-02-25T19:12:37.997Z,5.45
2023-02-25T19:15:11.803Z,5.45
2023-02-25T19:17:41.354Z,5.38
2023-02-25T19:20:13.118Z,5.53
2023-02-25T19:22:45.533Z,5.64
2023-02-25T19:25:27.992Z,5.61
2023-02-25T19:27:56.416Z,5.73
2023-02-25T19:30:34.970Z,5.66
2023-02-25T19:33:06.379Z,5.82
2023-02-25T19:35:39.325Z,5.81
2023-02-25T19:38:18.582Z,5.65
2023-02-25T19:40:47.526Z,5.17
2023-02-25T19:43:18.570Z,5.10
2023-02-25T19:45:45.945Z,5.05
2023-02-25T19:48:13.097Z,4.76
2023-02-25T19:50:42.638Z,4.65
2023-02-25T19:53:12.270Z,4.18
2023-02-25T19:55:42.109Z,4.20
2023-02-25T19:58:11.195Z,4.16
2023-02-25T20:00:46.205Z,4.29
2023-02-25T20:03:18.190Z,4.32
2023-02-25T20:05:50.740Z,4.54
2023-02-25T20:08:20.174Z,4.54
2023-02-25T20:10:49.510Z,4.41
2023-02-25T20:13:17.783Z,4.22
2023-02-25T20:15:46.894Z,4.24
2023-02-25T20:18:13.770Z,4.24
2023-02-25T20:20:44.383Z,4.11
2023-02-25T20:23:11.480Z,4.07
2023-02-25T20:25:38.594Z,4.10
2023-02-25T20:28:05.573Z,4.21
2023-02-25T20:30:32.669Z,4.19
2023-02-25T20:33:04.782Z,4.14
2023-02-25T20:35:34.751Z,3.97
2023-02-25T20:38:17.012Z,3.86
2023-02-25T20:40:44.107Z,3.66
2023-02-25T20:43:15.217Z,3.71
2023-02-25T20:45:42.671Z,3.64
2023-02-25T20:48:27.126Z,3.76
2023-02-25T20:50:55.125Z,3.93
2023-02-25T20:53:24.892Z,3.91
2023-02-25T20:55:59.398Z,3.93
2023-02-25T20:58:31.009Z,3.93
2023-02-25T21:01:02.646Z,4.00
2023-02-25T21:03:32.119Z,3.96
2023-02-25T21:06:01.660Z,4.02
2023-02-25T21:08:28.932Z,4.14
2023-02-25T21:11:00.860Z,4.27
2023-02-25T21:13:27.836Z,4.13
2023-02-25T21:16:07.430Z,4.12
2023-02-25T21:18:34.982Z,4.07
2023-02-25T21:21:08.958Z,3.89
2023-02-25T21:23:37.397Z,3.88
2023-02-25T21:26:06.151Z,3.72
2023-02-25T21:28:33.406Z,3.70
2023-02-25T21:31:12.912Z,3.73
2023-02-25T21:33:40.813Z,3.80
2023-02-25T21:36:09.895Z,3.64
2023-02-25T21:38:39.886Z,3.67
2023-02-25T21:41:13.775Z,3.64
2023-02-25T21:43:42.269Z,3.74
2023-02-25T21:46:13.029Z,3.75
2023-02-25T21:48:44.246Z,3.70
2023-02-25T21:51:23.474Z,3.73
2023-02-25T21:53:57.293Z,3.77
2023-02-25T21:56:25.855Z,3.64
2023-02-25T21:58:55.642Z,3.71
2023-02-25T22:01:35.689Z,3.64
2023-02-25T22:04:03.970Z,3.54
2023-02-25T22:06:33.813Z,3.54
2023-02-25T22:09:01.626Z,3.52
2023-02-25T22:11:32.609Z,3.50
2023-02-25T22:14:03.387Z,3.60
2023-02-25T22:16:30.509Z,3.70
2023-02-25T22:18:58.813Z,3.69
2023-02-25T22:21:29.088Z,3.70
2023-02-25T22:24:01.982Z,3.71
2023-02-25T22:26:32.575Z,3.66
2023-02-25T22:29:05.549Z,3.72
2023-02-25T22:31:35.436Z,3.83
2023-02-25T22:34:03.353Z,3.69
2023-02-25T22:36:30.343Z,3.68
2023-02-25T22:38:57.373Z,3.59
2023-02-25T22:41:32.844Z,3.60
2023-02-25T22:44:01.242Z,3.64
2023-02-25T22:46:37.310Z,3.69
2023-02-25T22:49:05.855Z,3.81
2023-02-25T22:51:41.980Z,3.58
2023-02-25T22:54:20.144Z,3.40
2023-02-25T22:56:52.564Z,3.51
2023-02-25T22:59:21.981Z,3.50
2023-02-25T23:01:48.929Z,3.74
2023-02-25T23:04:19.008Z,3.78
2023-02-25T23:06:50.546Z,3.76
2023-02-25T23:09:17.952Z,3.67
2023-02-25T23:11:49.970Z,3.95
2023-02-25T23:14:16.903Z,4.04
2023-02-25T23:16:47.190Z,4.15
2023-02-25T23:19:18.202Z,4.14
2023-02-25T23:21:45.819Z,4.16
2023-02-25T23:24:19.625Z,3.87
2023-02-25T23:26:50.815Z,3.93
2023-02-25T23:29:18.044Z,3.81
2023-02-25T23:31:47.959Z,3.74
2023-02-25T23:34:25.999Z,3.65
2023-02-25T23:36:59.485Z,3.85
2023-02-25T23:39:26.748Z,3.93
2023-02-25T23:41:55.973Z,3.94
2023-02-25T23:44:23.457Z,4.01
2023-02-25T23:46:50.562Z,3.96
2023-02-25T23:49:19.989Z,3.78
2023-02-25T23:51:50.949Z,3.74
2023-02-25T23:54:21.341Z,3.59
2023-02-25T23:56:49.871Z,3.57
2023-02-25T23:59:22.373Z,3.66
